Terminal Aerodrome Forecast
Issued by NWS Duluth, MN

Home | Current Version | Previous Version | Text Only | Print | Product List | Glossary On
Versions: 1 2 3 4 5 6 7 8 9 10 11 12 13 14 15 16 17 18 19 20 21 22 23
000
FTUS43 KDLH 032343
TAFINL
TAF
KINL 032343Z 0400/0424 17004KT P6SM OVC019
     FM040600 16007KT P6SM VCSH OVC012
     FM041100 14009KT 5SM -SN OVC008
     FM041500 15008KT 2SM -SN OVC008
     FM041900 15007KT 3SM -SN OVC008=

USA.gov is the U.S. government's official web portal to all federal, state and local government web resources and services.